sensor_id;sensor_type;location;lat;lon;timestamp;P1;durP1;ratioP1;P2;durP2;ratioP2
70433;SDS011;57876;47.792;12.960;2024-01-30T00:02:04;5.03;;;1.90;;
70433;SDS011;57876;47.792;12.960;2024-01-30T00:04:29;5.70;;;2.00;;
70433;SDS011;57876;47.792;12.960;2024-01-30T00:06:53;5.35;;;2.10;;
70433;SDS011;57876;47.792;12.960;2024-01-30T00:09:18;5.50;;;2.00;;
70433;SDS011;57876;47.792;12.960;2024-01-30T00:11:42;5.77;;;2.13;;
70433;SDS011;57876;47.792;12.960;2024-01-30T00:14:07;6.03;;;1.80;;
70433;SDS011;57876;47.792;12.960;2024-01-30T00:16:31;5.53;;;1.98;;
70433;SDS011;57876;47.792;12.960;2024-01-30T00:18:56;5.10;;;1.80;;
70433;SDS011;57876;47.792;12.960;2024-01-30T00:21:20;5.23;;;2.20;;
70433;SDS011;57876;47.792;12.960;2024-01-30T00:23:45;5.40;;;2.10;;
70433;SDS011;57876;47.792;12.960;2024-01-30T00:26:09;5.20;;;1.97;;
70433;SDS011;57876;47.792;12.960;2024-01-30T00:28:35;5.60;;;2.00;;
70433;SDS011;57876;47.792;12.960;2024-01-30T00:31:00;5.63;;;2.10;;
70433;SDS011;57876;47.792;12.960;2024-01-30T00:33:24;5.57;;;2.10;;
70433;SDS011;57876;47.792;12.960;2024-01-30T00:35:49;5.10;;;1.80;;
70433;SDS011;57876;47.792;12.960;2024-01-30T00:38:15;5.80;;;2.27;;
70433;SDS011;57876;47.792;12.960;2024-01-30T00:40:39;5.55;;;1.95;;
70433;SDS011;57876;47.792;12.960;2024-01-30T00:43:04;5.13;;;1.93;;
70433;SDS011;57876;47.792;12.960;2024-01-30T00:45:28;5.43;;;2.30;;
70433;SDS011;57876;47.792;12.960;2024-01-30T00:47:52;5.13;;;2.00;;
70433;SDS011;57876;47.792;12.960;2024-01-30T00:50:17;5.65;;;2.10;;
70433;SDS011;57876;47.792;12.960;2024-01-30T00:52:41;5.10;;;2.10;;
70433;SDS011;57876;47.792;12.960;2024-01-30T00:55:08;5.72;;;2.00;;
70433;SDS011;57876;47.792;12.960;2024-01-30T00:57:33;5.03;;;1.90;;
70433;SDS011;57876;47.792;12.960;2024-01-30T00:59:57;5.27;;;1.77;;
70433;SDS011;57876;47.792;12.960;2024-01-30T01:02:22;5.03;;;1.87;;
70433;SDS011;57876;47.792;12.960;2024-01-30T01:04:46;5.40;;;1.90;;
70433;SDS011;57876;47.792;12.960;2024-01-30T01:07:11;5.43;;;1.93;;
70433;SDS011;57876;47.792;12.960;2024-01-30T01:09:35;6.43;;;2.20;;
70433;SDS011;57876;47.792;12.960;2024-01-30T01:12:01;5.25;;;1.98;;
70433;SDS011;57876;47.792;12.960;2024-01-30T01:14:26;4.85;;;1.85;;
70433;SDS011;57876;47.792;12.960;2024-01-30T01:16:51;5.00;;;2.03;;
70433;SDS011;57876;47.792;12.960;2024-01-30T01:19:15;4.90;;;1.90;;
70433;SDS011;57876;47.792;12.960;2024-01-30T01:21:40;5.40;;;1.83;;
70433;SDS011;57876;47.792;12.960;2024-01-30T01:24:04;5.10;;;1.87;;
70433;SDS011;57876;47.792;12.960;2024-01-30T01:26:29;5.33;;;1.93;;
70433;SDS011;57876;47.792;12.960;2024-01-30T01:28:53;5.10;;;1.80;;
70433;SDS011;57876;47.792;12.960;2024-01-30T01:31:17;5.83;;;2.10;;
70433;SDS011;57876;47.792;12.960;2024-01-30T01:33:42;5.17;;;2.00;;
70433;SDS011;57876;47.792;12.960;2024-01-30T01:36:06;5.27;;;2.00;;
70433;SDS011;57876;47.792;12.960;2024-01-30T01:38:31;5.23;;;2.07;;
70433;SDS011;57876;47.792;12.960;2024-01-30T01:40:55;5.50;;;1.90;;
70433;SDS011;57876;47.792;12.960;2024-01-30T01:43:19;5.53;;;1.97;;
70433;SDS011;57876;47.792;12.960;2024-01-30T01:45:44;5.80;;;2.20;;
70433;SDS011;57876;47.792;12.960;2024-01-30T01:48:09;5.38;;;2.15;;
70433;SDS011;57876;47.792;12.960;2024-01-30T01:50:34;5.60;;;2.00;;
70433;SDS011;57876;47.792;12.960;2024-01-30T01:53:00;6.18;;;2.15;;
70433;SDS011;57876;47.792;12.960;2024-01-30T01:55:25;5.60;;;2.10;;
70433;SDS011;57876;47.792;12.960;2024-01-30T01:57:52;5.50;;;2.00;;
70433;SDS011;57876;47.792;12.960;2024-01-30T02:00:17;5.50;;;1.98;;
70433;SDS011;57876;47.792;12.960;2024-01-30T02:02:43;5.55;;;1.85;;
70433;SDS011;57876;47.792;12.960;2024-01-30T02:05:08;5.18;;;1.90;;
70433;SDS011;57876;47.792;12.960;2024-01-30T02:07:33;5.47;;;2.13;;
70433;SDS011;57876;47.792;12.960;2024-01-30T02:09:57;6.20;;;2.10;;
70433;SDS011;57876;47.792;12.960;2024-01-30T02:12:22;4.95;;;1.90;;
70433;SDS011;57876;47.792;12.960;2024-01-30T02:14:47;5.63;;;2.20;;
70433;SDS011;57876;47.792;12.960;2024-01-30T02:17:12;5.00;;;1.83;;
70433;SDS011;57876;47.792;12.960;2024-01-30T02:19:37;5.35;;;1.95;;
70433;SDS011;57876;47.792;12.960;2024-01-30T02:22:02;5.87;;;2.20;;
70433;SDS011;57876;47.792;12.960;2024-01-30T02:24:26;5.40;;;1.95;;
70433;SDS011;57876;47.792;12.960;2024-01-30T02:26:51;5.50;;;2.20;;
70433;SDS011;57876;47.792;12.960;2024-01-30T02:29:15;5.60;;;2.13;;
70433;SDS011;57876;47.792;12.960;2024-01-30T02:31:40;5.82;;;2.25;;
70433;SDS011;57876;47.792;12.960;2024-01-30T02:34:05;5.07;;;1.98;;
70433;SDS011;57876;47.792;12.960;2024-01-30T02:36:29;5.50;;;2.10;;
70433;SDS011;57876;47.792;12.960;2024-01-30T02:38:54;5.07;;;1.73;;
70433;SDS011;57876;47.792;12.960;2024-01-30T02:41:18;5.30;;;1.90;;
70433;SDS011;57876;47.792;12.960;2024-01-30T02:43:43;5.00;;;1.90;;
70433;SDS011;57876;47.792;12.960;2024-01-30T02:46:07;5.00;;;1.90;;
70433;SDS011;57876;47.792;12.960;2024-01-30T02:48:32;5.67;;;1.93;;
70433;SDS011;57876;47.792;12.960;2024-01-30T02:50:56;5.20;;;2.10;;
70433;SDS011;57876;47.792;12.960;2024-01-30T02:56:14;5.53;;;1.90;;
70433;SDS011;57876;47.792;12.960;2024-01-30T02:58:39;5.25;;;1.88;;
70433;SDS011;57876;47.792;12.960;2024-01-30T03:01:04;5.60;;;2.10;;
70433;SDS011;57876;47.792;12.960;2024-01-30T03:03:28;5.57;;;1.90;;
70433;SDS011;57876;47.792;12.960;2024-01-30T03:05:53;5.37;;;1.80;;
70433;SDS011;57876;47.792;12.960;2024-01-30T03:08:17;5.30;;;2.00;;
70433;SDS011;57876;47.792;12.960;2024-01-30T03:10:41;5.37;;;1.90;;
70433;SDS011;57876;47.792;12.960;2024-01-30T03:13:06;5.80;;;1.97;;
70433;SDS011;57876;47.792;12.960;2024-01-30T03:15:30;4.55;;;1.48;;
70433;SDS011;57876;47.792;12.960;2024-01-30T03:17:55;4.70;;;1.60;;
70433;SDS011;57876;47.792;12.960;2024-01-30T03:20:19;5.07;;;1.70;;
70433;SDS011;57876;47.792;12.960;2024-01-30T03:22:45;5.30;;;1.77;;
70433;SDS011;57876;47.792;12.960;2024-01-30T03:25:09;4.90;;;1.80;;
70433;SDS011;57876;47.792;12.960;2024-01-30T03:27:33;5.23;;;1.80;;
70433;SDS011;57876;47.792;12.960;2024-01-30T03:29:58;5.03;;;1.73;;
70433;SDS011;57876;47.792;12.960;2024-01-30T03:32:22;5.32;;;1.80;;
70433;SDS011;57876;47.792;12.960;2024-01-30T03:34:46;5.53;;;1.70;;
70433;SDS011;57876;47.792;12.960;2024-01-30T03:37:11;5.33;;;1.83;;
70433;SDS011;57876;47.792;12.960;2024-01-30T03:39:35;5.20;;;1.73;;
70433;SDS011;57876;47.792;12.960;2024-01-30T03:42:00;5.35;;;1.80;;
70433;SDS011;57876;47.792;12.960;2024-01-30T03:44:25;5.83;;;1.70;;
70433;SDS011;57876;47.792;12.960;2024-01-30T03:46:49;4.90;;;1.80;;
70433;SDS011;57876;47.792;12.960;2024-01-30T03:49:14;4.60;;;1.30;;
70433;SDS011;57876;47.792;12.960;2024-01-30T03:51:38;4.80;;;1.67;;
70433;SDS011;57876;47.792;12.960;2024-01-30T03:54:03;4.70;;;1.70;;
70433;SDS011;57876;47.792;12.960;2024-01-30T03:56:27;4.78;;;1.60;;
70433;SDS011;57876;47.792;12.960;2024-01-30T03:58:51;4.87;;;1.50;;
70433;SDS011;57876;47.792;12.960;2024-01-30T04:01:16;4.70;;;1.50;;
70433;SDS011;57876;47.792;12.960;2024-01-30T04:03:40;4.90;;;1.70;;
70433;SDS011;57876;47.792;12.960;2024-01-30T04:06:05;5.05;;;1.80;;
70433;SDS011;57876;47.792;12.960;2024-01-30T04:08:29;5.33;;;1.83;;
70433;SDS011;57876;47.792;12.960;2024-01-30T04:10:54;5.20;;;1.90;;
70433;SDS011;57876;47.792;12.960;2024-01-30T04:13:18;5.10;;;1.60;;
70433;SDS011;57876;47.792;12.960;2024-01-30T04:15:42;4.83;;;1.63;;
70433;SDS011;57876;47.792;12.960;2024-01-30T04:18:07;4.83;;;1.60;;
70433;SDS011;57876;47.792;12.960;2024-01-30T04:20:31;4.90;;;1.60;;
70433;SDS011;57876;47.792;12.960;2024-01-30T04:22:56;4.80;;;1.60;;
70433;SDS011;57876;47.792;12.960;2024-01-30T04:25:20;4.93;;;1.70;;
70433;SDS011;57876;47.792;12.960;2024-01-30T04:27:45;4.80;;;1.50;;
70433;SDS011;57876;47.792;12.960;2024-01-30T04:30:09;5.13;;;1.83;;
70433;SDS011;57876;47.792;12.960;2024-01-30T04:32:34;4.70;;;1.48;;
70433;SDS011;57876;47.792;12.960;2024-01-30T04:34:59;4.93;;;1.70;;
70433;SDS011;57876;47.792;12.960;2024-01-30T04:37:23;5.15;;;1.50;;
70433;SDS011;57876;47.792;12.960;2024-01-30T04:39:48;4.70;;;1.50;;
70433;SDS011;57876;47.792;12.960;2024-01-30T04:42:13;5.50;;;1.87;;
70433;SDS011;57876;47.792;12.960;2024-01-30T04:44:37;4.77;;;1.60;;
70433;SDS011;57876;47.792;12.960;2024-01-30T04:47:01;4.93;;;1.60;;
70433;SDS011;57876;47.792;12.960;2024-01-30T04:49:26;4.70;;;1.50;;
70433;SDS011;57876;47.792;12.960;2024-01-30T04:51:51;4.80;;;1.70;;
70433;SDS011;57876;47.792;12.960;2024-01-30T04:54:15;4.50;;;1.23;;
70433;SDS011;57876;47.792;12.960;2024-01-30T04:56:39;5.03;;;1.63;;
70433;SDS011;57876;47.792;12.960;2024-01-30T04:59:04;5.07;;;1.80;;
70433;SDS011;57876;47.792;12.960;2024-01-30T05:01:28;5.30;;;1.70;;
70433;SDS011;57876;47.792;12.960;2024-01-30T05:03:52;4.68;;;1.42;;
70433;SDS011;57876;47.792;12.960;2024-01-30T05:06:26;4.93;;;1.53;;
70433;SDS011;57876;47.792;12.960;2024-01-30T05:08:51;5.05;;;1.80;;
70433;SDS011;57876;47.792;12.960;2024-01-30T05:11:15;4.60;;;1.70;;
70433;SDS011;57876;47.792;12.960;2024-01-30T05:13:39;4.77;;;1.50;;
70433;SDS011;57876;47.792;12.960;2024-01-30T05:16:04;4.77;;;1.50;;
70433;SDS011;57876;47.792;12.960;2024-01-30T05:18:28;4.77;;;1.63;;
70433;SDS011;57876;47.792;12.960;2024-01-30T05:20:53;5.22;;;1.60;;
70433;SDS011;57876;47.792;12.960;2024-01-30T05:23:17;4.90;;;1.47;;
70433;SDS011;57876;47.792;12.960;2024-01-30T05:25:41;4.90;;;1.40;;
70433;SDS011;57876;47.792;12.960;2024-01-30T05:28:06;4.90;;;1.50;;
70433;SDS011;57876;47.792;12.960;2024-01-30T05:30:30;4.80;;;1.60;;
70433;SDS011;57876;47.792;12.960;2024-01-30T05:32:55;4.88;;;1.40;;
70433;SDS011;57876;47.792;12.960;2024-01-30T05:35:19;4.77;;;1.60;;
70433;SDS011;57876;47.792;12.960;2024-01-30T05:37:45;4.60;;;1.70;;
70433;SDS011;57876;47.792;12.960;2024-01-30T05:40:09;5.33;;;1.70;;
70433;SDS011;57876;47.792;12.960;2024-01-30T05:42:34;4.97;;;1.70;;
70433;SDS011;57876;47.792;12.960;2024-01-30T05:44:58;4.20;;;1.30;;
70433;SDS011;57876;47.792;12.960;2024-01-30T05:47:23;4.97;;;1.60;;
70433;SDS011;57876;47.792;12.960;2024-01-30T05:49:47;4.80;;;1.53;;
70433;SDS011;57876;47.792;12.960;2024-01-30T05:52:12;4.83;;;1.53;;
70433;SDS011;57876;47.792;12.960;2024-01-30T05:54:36;4.70;;;1.50;;
70433;SDS011;57876;47.792;12.960;2024-01-30T05:57:00;4.60;;;1.47;;
70433;SDS011;57876;47.792;12.960;2024-01-30T05:59:25;4.87;;;1.50;;
70433;SDS011;57876;47.792;12.960;2024-01-30T06:01:49;5.33;;;1.40;;
70433;SDS011;57876;47.792;12.960;2024-01-30T06:04:14;4.97;;;1.58;;
70433;SDS011;57876;47.792;12.960;2024-01-30T06:06:39;4.67;;;1.50;;
70433;SDS011;57876;47.792;12.960;2024-01-30T06:09:03;4.70;;;1.47;;
70433;SDS011;57876;47.792;12.960;2024-01-30T06:11:28;4.65;;;1.58;;
70433;SDS011;57876;47.792;12.960;2024-01-30T06:13:52;5.10;;;1.60;;
70433;SDS011;57876;47.792;12.960;2024-01-30T06:16:16;4.63;;;1.40;;
70433;SDS011;57876;47.792;12.960;2024-01-30T06:18:41;4.45;;;1.40;;
70433;SDS011;57876;47.792;12.960;2024-01-30T06:21:05;4.83;;;1.50;;
70433;SDS011;57876;47.792;12.960;2024-01-30T06:23:30;5.17;;;1.50;;
70433;SDS011;57876;47.792;12.960;2024-01-30T06:25:54;4.67;;;1.47;;
70433;SDS011;57876;47.792;12.960;2024-01-30T06:28:18;4.47;;;1.30;;
70433;SDS011;57876;47.792;12.960;2024-01-30T06:30:43;4.77;;;1.60;;
70433;SDS011;57876;47.792;12.960;2024-01-30T06:33:11;4.80;;;1.70;;
70433;SDS011;57876;47.792;12.960;2024-01-30T06:35:37;4.72;;;1.60;;
70433;SDS011;57876;47.792;12.960;2024-01-30T06:38:04;4.90;;;1.60;;
70433;SDS011;57876;47.792;12.960;2024-01-30T06:40:28;4.53;;;1.50;;
70433;SDS011;57876;47.792;12.960;2024-01-30T06:42:52;4.60;;;1.50;;
70433;SDS011;57876;47.792;12.960;2024-01-30T06:45:17;4.83;;;1.63;;
70433;SDS011;57876;47.792;12.960;2024-01-30T06:47:41;4.87;;;1.50;;
70433;SDS011;57876;47.792;12.960;2024-01-30T06:50:06;5.20;;;1.70;;
70433;SDS011;57876;47.792;12.960;2024-01-30T06:52:30;4.90;;;1.50;;
70433;SDS011;57876;47.792;12.960;2024-01-30T06:54:55;4.70;;;1.50;;
70433;SDS011;57876;47.792;12.960;2024-01-30T06:57:19;5.03;;;1.60;;
70433;SDS011;57876;47.792;12.960;2024-01-30T06:59:44;5.53;;;1.67;;
70433;SDS011;57876;47.792;12.960;2024-01-30T07:02:09;5.40;;;1.60;;
70433;SDS011;57876;47.792;12.960;2024-01-30T07:04:34;4.88;;;1.65;;
70433;SDS011;57876;47.792;12.960;2024-01-30T07:06:58;4.60;;;1.50;;
70433;SDS011;57876;47.792;12.960;2024-01-30T07:09:22;4.60;;;1.40;;
70433;SDS011;57876;47.792;12.960;2024-01-30T07:11:47;4.60;;;1.50;;
70433;SDS011;57876;47.792;12.960;2024-01-30T07:14:11;4.20;;;1.40;;
70433;SDS011;57876;47.792;12.960;2024-01-30T07:16:36;4.83;;;1.70;;
70433;SDS011;57876;47.792;12.960;2024-01-30T07:19:00;5.10;;;1.42;;
70433;SDS011;57876;47.792;12.960;2024-01-30T07:21:25;4.80;;;1.53;;
70433;SDS011;57876;47.792;12.960;2024-01-30T07:23:52;4.75;;;1.45;;
70433;SDS011;57876;47.792;12.960;2024-01-30T07:26:16;5.27;;;1.60;;
70433;SDS011;57876;47.792;12.960;2024-01-30T07:28:40;4.90;;;1.57;;
70433;SDS011;57876;47.792;12.960;2024-01-30T07:31:05;4.73;;;1.47;;
70433;SDS011;57876;47.792;12.960;2024-01-30T07:33:30;4.88;;;1.77;;
70433;SDS011;57876;47.792;12.960;2024-01-30T07:35:54;4.80;;;1.50;;
70433;SDS011;57876;47.792;12.960;2024-01-30T07:38:20;4.53;;;1.60;;
70433;SDS011;57876;47.792;12.960;2024-01-30T07:40:45;4.80;;;1.50;;
70433;SDS011;57876;47.792;12.960;2024-01-30T07:43:09;4.55;;;1.65;;
70433;SDS011;57876;47.792;12.960;2024-01-30T07:45:34;4.70;;;1.60;;
70433;SDS011;57876;47.792;12.960;2024-01-30T07:47:58;4.90;;;1.50;;
70433;SDS011;57876;47.792;12.960;2024-01-30T07:50:26;5.07;;;1.50;;
70433;SDS011;57876;47.792;12.960;2024-01-30T07:52:51;4.70;;;1.50;;
70433;SDS011;57876;47.792;12.960;2024-01-30T07:56:05;4.88;;;1.77;;
70433;SDS011;57876;47.792;12.960;2024-01-30T07:58:12;5.15;;;1.60;;
70433;SDS011;57876;47.792;12.960;2024-01-30T08:00:36;5.37;;;1.57;;
70433;SDS011;57876;47.792;12.960;2024-01-30T08:03:01;5.00;;;1.67;;
70433;SDS011;57876;47.792;12.960;2024-01-30T08:05:25;5.40;;;1.70;;
70433;SDS011;57876;47.792;12.960;2024-01-30T08:07:50;4.87;;;1.60;;
70433;SDS011;57876;47.792;12.960;2024-01-30T08:10:15;4.53;;;1.50;;
70433;SDS011;57876;47.792;12.960;2024-01-30T08:12:39;4.80;;;1.67;;
70433;SDS011;57876;47.792;12.960;2024-01-30T08:15:04;4.70;;;1.40;;
70433;SDS011;57876;47.792;12.960;2024-01-30T08:17:29;4.50;;;1.38;;
70433;SDS011;57876;47.792;12.960;2024-01-30T08:19:53;4.80;;;1.60;;
70433;SDS011;57876;47.792;12.960;2024-01-30T08:22:17;5.47;;;1.60;;
70433;SDS011;57876;47.792;12.960;2024-01-30T08:24:42;5.60;;;1.83;;
70433;SDS011;57876;47.792;12.960;2024-01-30T08:27:07;4.82;;;1.48;;
70433;SDS011;57876;47.792;12.960;2024-01-30T08:29:33;4.57;;;1.50;;
70433;SDS011;57876;47.792;12.960;2024-01-30T08:31:58;4.82;;;1.55;;
70433;SDS011;57876;47.792;12.960;2024-01-30T08:34:23;4.77;;;1.50;;
70433;SDS011;57876;47.792;12.960;2024-01-30T08:36:47;4.43;;;1.17;;
70433;SDS011;57876;47.792;12.960;2024-01-30T08:39:12;4.70;;;1.40;;
70433;SDS011;57876;47.792;12.960;2024-01-30T08:41:36;4.67;;;1.33;;
70433;SDS011;57876;47.792;12.960;2024-01-30T08:44:00;4.63;;;1.50;;
70433;SDS011;57876;47.792;12.960;2024-01-30T08:46:25;5.13;;;1.73;;
70433;SDS011;57876;47.792;12.960;2024-01-30T08:48:49;4.80;;;1.70;;
70433;SDS011;57876;47.792;12.960;2024-01-30T08:51:14;4.97;;;1.53;;
70433;SDS011;57876;47.792;12.960;2024-01-30T08:53:39;4.80;;;1.40;;
70433;SDS011;57876;47.792;12.960;2024-01-30T08:56:03;5.33;;;1.50;;
70433;SDS011;57876;47.792;12.960;2024-01-30T08:58:29;4.68;;;1.50;;
70433;SDS011;57876;47.792;12.960;2024-01-30T09:00:53;4.80;;;1.40;;
70433;SDS011;57876;47.792;12.960;2024-01-30T09:03:18;5.00;;;1.70;;
70433;SDS011;57876;47.792;12.960;2024-01-30T09:05:42;4.68;;;1.60;;
70433;SDS011;57876;47.792;12.960;2024-01-30T09:08:06;4.90;;;1.40;;
70433;SDS011;57876;47.792;12.960;2024-01-30T09:10:31;5.10;;;1.67;;
70433;SDS011;57876;47.792;12.960;2024-01-30T09:12:55;5.37;;;1.80;;
70433;SDS011;57876;47.792;12.960;2024-01-30T09:15:19;6.30;;;2.47;;
70433;SDS011;57876;47.792;12.960;2024-01-30T09:17:44;10.60;;;2.45;;
70433;SDS011;57876;47.792;12.960;2024-01-30T09:20:08;11.47;;;3.23;;
70433;SDS011;57876;47.792;12.960;2024-01-30T09:22:34;8.57;;;2.17;;
70433;SDS011;57876;47.792;12.960;2024-01-30T09:24:59;9.13;;;2.10;;
70433;SDS011;57876;47.792;12.960;2024-01-30T09:27:23;10.35;;;2.10;;
70433;SDS011;57876;47.792;12.960;2024-01-30T09:29:48;8.67;;;2.20;;
70433;SDS011;57876;47.792;12.960;2024-01-30T09:32:12;10.07;;;2.20;;
70433;SDS011;57876;47.792;12.960;2024-01-30T09:34:36;6.87;;;2.27;;
70433;SDS011;57876;47.792;12.960;2024-01-30T09:37:01;9.57;;;2.33;;
70433;SDS011;57876;47.792;12.960;2024-01-30T09:39:26;6.27;;;1.83;;
70433;SDS011;57876;47.792;12.960;2024-01-30T09:42:01;5.72;;;1.90;;
70433;SDS011;57876;47.792;12.960;2024-01-30T09:44:29;9.80;;;2.30;;
70433;SDS011;57876;47.792;12.960;2024-01-30T09:46:54;6.33;;;1.90;;
70433;SDS011;57876;47.792;12.960;2024-01-30T09:49:19;6.55;;;2.00;;
70433;SDS011;57876;47.792;12.960;2024-01-30T09:51:44;6.00;;;1.70;;
70433;SDS011;57876;47.792;12.960;2024-01-30T09:54:10;5.72;;;1.60;;
70433;SDS011;57876;47.792;12.960;2024-01-30T09:56:37;6.07;;;1.90;;
70433;SDS011;57876;47.792;12.960;2024-01-30T09:59:02;7.40;;;2.13;;
70433;SDS011;57876;47.792;12.960;2024-01-30T10:01:26;6.83;;;1.70;;
70433;SDS011;57876;47.792;12.960;2024-01-30T10:03:51;6.60;;;1.83;;
70433;SDS011;57876;47.792;12.960;2024-01-30T10:06:18;6.32;;;1.80;;
70433;SDS011;57876;47.792;12.960;2024-01-30T10:08:44;5.43;;;1.70;;
70433;SDS011;57876;47.792;12.960;2024-01-30T10:11:09;5.83;;;1.70;;
70433;SDS011;57876;47.792;12.960;2024-01-30T10:13:33;5.50;;;1.77;;
70433;SDS011;57876;47.792;12.960;2024-01-30T10:15:58;5.90;;;1.90;;
70433;SDS011;57876;47.792;12.960;2024-01-30T10:18:22;4.87;;;1.50;;
70433;SDS011;57876;47.792;12.960;2024-01-30T10:20:47;6.18;;;1.88;;
70433;SDS011;57876;47.792;12.960;2024-01-30T10:23:11;6.37;;;1.90;;
70433;SDS011;57876;47.792;12.960;2024-01-30T10:25:36;5.23;;;1.57;;
70433;SDS011;57876;47.792;12.960;2024-01-30T10:28:02;4.47;;;1.35;;
70433;SDS011;57876;47.792;12.960;2024-01-30T10:30:27;5.57;;;1.70;;
70433;SDS011;57876;47.792;12.960;2024-01-30T10:32:52;5.20;;;1.60;;
70433;SDS011;57876;47.792;12.960;2024-01-30T10:35:16;4.70;;;1.60;;
70433;SDS011;57876;47.792;12.960;2024-01-30T10:37:44;5.00;;;1.50;;
70433;SDS011;57876;47.792;12.960;2024-01-30T10:40:12;4.93;;;1.38;;
70433;SDS011;57876;47.792;12.960;2024-01-30T10:42:38;4.45;;;1.30;;
70433;SDS011;57876;47.792;12.960;2024-01-30T10:45:07;5.37;;;1.50;;
70433;SDS011;57876;47.792;12.960;2024-01-30T10:47:34;5.38;;;1.67;;
70433;SDS011;57876;47.792;12.960;2024-01-30T10:50:00;5.45;;;1.60;;
70433;SDS011;57876;47.792;12.960;2024-01-30T10:52:27;5.22;;;1.38;;
70433;SDS011;57876;47.792;12.960;2024-01-30T10:54:54;5.10;;;1.60;;
70433;SDS011;57876;47.792;12.960;2024-01-30T10:57:19;4.70;;;1.60;;
70433;SDS011;57876;47.792;12.960;2024-01-30T10:59:46;5.50;;;1.40;;
70433;SDS011;57876;47.792;12.960;2024-01-30T11:02:11;5.53;;;1.45;;
70433;SDS011;57876;47.792;12.960;2024-01-30T11:04:38;5.53;;;1.50;;
70433;SDS011;57876;47.792;12.960;2024-01-30T11:07:17;4.88;;;1.50;;
70433;SDS011;57876;47.792;12.960;2024-01-30T11:12:39;5.00;;;1.33;;
70433;SDS011;57876;47.792;12.960;2024-01-30T11:15:05;4.88;;;1.55;;
70433;SDS011;57876;47.792;12.960;2024-01-30T11:17:50;4.85;;;1.40;;
70433;SDS011;57876;47.792;12.960;2024-01-30T11:22:55;5.63;;;1.20;;
70433;SDS011;57876;47.792;12.960;2024-01-30T11:25:21;5.78;;;1.95;;
70433;SDS011;57876;47.792;12.960;2024-01-30T11:27:47;4.90;;;1.55;;
70433;SDS011;57876;47.792;12.960;2024-01-30T11:30:32;4.72;;;1.50;;
70433;SDS011;57876;47.792;12.960;2024-01-30T11:33:07;5.00;;;1.50;;
70433;SDS011;57876;47.792;12.960;2024-01-30T11:35:33;6.40;;;1.30;;
70433;SDS011;57876;47.792;12.960;2024-01-30T11:38:08;4.90;;;1.30;;
70433;SDS011;57876;47.792;12.960;2024-01-30T11:40:33;4.70;;;1.50;;
70433;SDS011;57876;47.792;12.960;2024-01-30T11:43:00;4.60;;;1.40;;
70433;SDS011;57876;47.792;12.960;2024-01-30T11:45:28;4.85;;;1.40;;
70433;SDS011;57876;47.792;12.960;2024-01-30T11:47:53;4.63;;;1.37;;
70433;SDS011;57876;47.792;12.960;2024-01-30T11:50:18;4.93;;;1.30;;
70433;SDS011;57876;47.792;12.960;2024-01-30T11:52:43;4.80;;;1.50;;
70433;SDS011;57876;47.792;12.960;2024-01-30T11:55:07;4.50;;;1.30;;
70433;SDS011;57876;47.792;12.960;2024-01-30T11:57:32;4.38;;;1.20;;
70433;SDS011;57876;47.792;12.960;2024-01-30T11:59:58;4.93;;;1.47;;
70433;SDS011;57876;47.792;12.960;2024-01-30T12:02:23;5.05;;;1.20;;
70433;SDS011;57876;47.792;12.960;2024-01-30T12:04:47;5.27;;;1.30;;
70433;SDS011;57876;47.792;12.960;2024-01-30T12:07:12;5.53;;;1.50;;
70433;SDS011;57876;47.792;12.960;2024-01-30T12:09:40;4.60;;;1.23;;
70433;SDS011;57876;47.792;12.960;2024-01-30T12:12:04;4.63;;;1.30;;
70433;SDS011;57876;47.792;12.960;2024-01-30T12:14:31;6.15;;;1.10;;
70433;SDS011;57876;47.792;12.960;2024-01-30T12:16:55;4.80;;;1.40;;
70433;SDS011;57876;47.792;12.960;2024-01-30T12:19:26;4.40;;;1.20;;
70433;SDS011;57876;47.792;12.960;2024-01-30T12:21:56;4.72;;;1.42;;
70433;SDS011;57876;47.792;12.960;2024-01-30T12:24:25;4.60;;;1.33;;
70433;SDS011;57876;47.792;12.960;2024-01-30T12:26:50;5.15;;;1.40;;
70433;SDS011;57876;47.792;12.960;2024-01-30T12:29:15;4.50;;;1.20;;
70433;SDS011;57876;47.792;12.960;2024-01-30T12:31:41;4.80;;;1.30;;
70433;SDS011;57876;47.792;12.960;2024-01-30T12:34:06;6.07;;;1.50;;
70433;SDS011;57876;47.792;12.960;2024-01-30T12:36:31;4.93;;;1.30;;
70433;SDS011;57876;47.792;12.960;2024-01-30T12:38:56;5.05;;;1.23;;
70433;SDS011;57876;47.792;12.960;2024-01-30T12:41:21;4.80;;;1.20;;
70433;SDS011;57876;47.792;12.960;2024-01-30T12:43:45;4.93;;;1.33;;
70433;SDS011;57876;47.792;12.960;2024-01-30T12:46:11;4.75;;;1.50;;
70433;SDS011;57876;47.792;12.960;2024-01-30T12:48:36;4.50;;;1.10;;
70433;SDS011;57876;47.792;12.960;2024-01-30T12:51:00;6.23;;;1.30;;
70433;SDS011;57876;47.792;12.960;2024-01-30T12:53:25;5.10;;;1.50;;
70433;SDS011;57876;47.792;12.960;2024-01-30T12:55:49;5.87;;;1.50;;
70433;SDS011;57876;47.792;12.960;2024-01-30T12:58:13;4.93;;;1.20;;
70433;SDS011;57876;47.792;12.960;2024-01-30T13:00:38;5.17;;;1.50;;
70433;SDS011;57876;47.792;12.960;2024-01-30T13:03:02;6.70;;;1.70;;
70433;SDS011;57876;47.792;12.960;2024-01-30T13:05:27;5.03;;;1.40;;
70433;SDS011;57876;47.792;12.960;2024-01-30T13:07:51;4.97;;;1.50;;
70433;SDS011;57876;47.792;12.960;2024-01-30T13:10:17;4.95;;;1.45;;
70433;SDS011;57876;47.792;12.960;2024-01-30T13:12:42;5.47;;;1.60;;
70433;SDS011;57876;47.792;12.960;2024-01-30T13:15:06;5.00;;;1.50;;
70433;SDS011;57876;47.792;12.960;2024-01-30T13:17:31;5.40;;;1.80;;
70433;SDS011;57876;47.792;12.960;2024-01-30T13:19:58;5.28;;;1.55;;
70433;SDS011;57876;47.792;12.960;2024-01-30T13:22:23;6.03;;;1.70;;
70433;SDS011;57876;47.792;12.960;2024-01-30T13:24:48;5.05;;;1.40;;
70433;SDS011;57876;47.792;12.960;2024-01-30T13:27:12;5.97;;;1.60;;
70433;SDS011;57876;47.792;12.960;2024-01-30T13:29:36;5.00;;;1.60;;
70433;SDS011;57876;47.792;12.960;2024-01-30T13:32:01;5.03;;;1.57;;
70433;SDS011;57876;47.792;12.960;2024-01-30T13:34:25;5.87;;;1.53;;
70433;SDS011;57876;47.792;12.960;2024-01-30T13:36:50;5.10;;;1.67;;
70433;SDS011;57876;47.792;12.960;2024-01-30T13:39:14;5.30;;;1.67;;
70433;SDS011;57876;47.792;12.960;2024-01-30T13:41:39;6.27;;;1.87;;
70433;SDS011;57876;47.792;12.960;2024-01-30T13:44:03;6.07;;;2.10;;
70433;SDS011;57876;47.792;12.960;2024-01-30T13:46:29;5.50;;;1.55;;
70433;SDS011;57876;47.792;12.960;2024-01-30T13:48:54;5.38;;;1.63;;
70433;SDS011;57876;47.792;12.960;2024-01-30T13:51:18;6.73;;;1.53;;
70433;SDS011;57876;47.792;12.960;2024-01-30T13:53:42;6.10;;;1.80;;
70433;SDS011;57876;47.792;12.960;2024-01-30T13:56:07;5.93;;;1.60;;
70433;SDS011;57876;47.792;12.960;2024-01-30T13:58:31;5.30;;;1.87;;
70433;SDS011;57876;47.792;12.960;2024-01-30T14:00:57;6.00;;;2.00;;
70433;SDS011;57876;47.792;12.960;2024-01-30T14:03:22;5.10;;;1.70;;
70433;SDS011;57876;47.792;12.960;2024-01-30T14:05:46;6.03;;;1.77;;
70433;SDS011;57876;47.792;12.960;2024-01-30T14:08:10;6.47;;;1.80;;
70433;SDS011;57876;47.792;12.960;2024-01-30T14:10:35;6.43;;;1.70;;
70433;SDS011;57876;47.792;12.960;2024-01-30T14:13:00;6.27;;;1.87;;
70433;SDS011;57876;47.792;12.960;2024-01-30T14:15:24;5.82;;;1.85;;
70433;SDS011;57876;47.792;12.960;2024-01-30T14:17:48;5.47;;;1.67;;
70433;SDS011;57876;47.792;12.960;2024-01-30T14:20:14;6.93;;;1.98;;
70433;SDS011;57876;47.792;12.960;2024-01-30T14:22:40;6.35;;;1.63;;
70433;SDS011;57876;47.792;12.960;2024-01-30T14:25:05;5.77;;;1.63;;
70433;SDS011;57876;47.792;12.960;2024-01-30T14:27:30;5.55;;;1.77;;
70433;SDS011;57876;47.792;12.960;2024-01-30T14:29:56;6.75;;;2.03;;